sensor_id;sensor_type;location;lat;lon;timestamp;P1;durP1;ratioP1;P2;durP2;ratioP2
11100;SDS011;5604;50.722;7.078;2023-07-08T00:01:11;10.93;;;7.70;;
11100;SDS011;5604;50.722;7.078;2023-07-08T00:03:41;7.90;;;6.47;;
11100;SDS011;5604;50.722;7.078;2023-07-08T00:06:11;8.77;;;6.50;;
11100;SDS011;5604;50.722;7.078;2023-07-08T00:08:43;12.07;;;8.67;;
11100;SDS011;5604;50.722;7.078;2023-07-08T00:11:12;10.23;;;7.50;;
11100;SDS011;5604;50.722;7.078;2023-07-08T00:13:41;8.93;;;7.17;;
11100;SDS011;5604;50.722;7.078;2023-07-08T00:16:11;9.67;;;7.43;;
11100;SDS011;5604;50.722;7.078;2023-07-08T00:18:40;9.13;;;7.30;;
11100;SDS011;5604;50.722;7.078;2023-07-08T00:21:09;10.27;;;8.07;;
11100;SDS011;5604;50.722;7.078;2023-07-08T00:23:39;9.80;;;7.07;;
11100;SDS011;5604;50.722;7.078;2023-07-08T00:26:09;8.03;;;7.17;;
11100;SDS011;5604;50.722;7.078;2023-07-08T00:28:39;10.27;;;7.53;;
11100;SDS011;5604;50.722;7.078;2023-07-08T00:31:08;9.83;;;7.37;;
11100;SDS011;5604;50.722;7.078;2023-07-08T00:33:38;8.83;;;7.40;;
11100;SDS011;5604;50.722;7.078;2023-07-08T00:36:08;8.63;;;7.13;;
11100;SDS011;5604;50.722;7.078;2023-07-08T00:38:40;9.50;;;8.10;;
11100;SDS011;5604;50.722;7.078;2023-07-08T00:41:12;9.30;;;7.47;;
11100;SDS011;5604;50.722;7.078;2023-07-08T00:43:44;8.97;;;7.47;;
11100;SDS011;5604;50.722;7.078;2023-07-08T00:46:18;10.63;;;7.77;;
11100;SDS011;5604;50.722;7.078;2023-07-08T00:48:51;8.37;;;7.07;;
11100;SDS011;5604;50.722;7.078;2023-07-08T00:51:21;9.17;;;7.13;;
11100;SDS011;5604;50.722;7.078;2023-07-08T00:53:50;8.73;;;7.23;;
11100;SDS011;5604;50.722;7.078;2023-07-08T00:56:20;9.83;;;7.53;;
11100;SDS011;5604;50.722;7.078;2023-07-08T00:58:51;11.37;;;7.90;;
11100;SDS011;5604;50.722;7.078;2023-07-08T01:01:25;8.33;;;7.03;;
11100;SDS011;5604;50.722;7.078;2023-07-08T01:03:55;10.17;;;7.07;;
11100;SDS011;5604;50.722;7.078;2023-07-08T01:06:31;10.00;;;7.30;;
11100;SDS011;5604;50.722;7.078;2023-07-08T01:09:01;8.90;;;7.73;;
11100;SDS011;5604;50.722;7.078;2023-07-08T01:11:31;9.27;;;7.67;;
11100;SDS011;5604;50.722;7.078;2023-07-08T01:14:01;9.57;;;7.50;;
11100;SDS011;5604;50.722;7.078;2023-07-08T01:16:34;9.40;;;7.73;;
11100;SDS011;5604;50.722;7.078;2023-07-08T01:19:04;8.67;;;7.40;;
11100;SDS011;5604;50.722;7.078;2023-07-08T01:21:33;9.57;;;7.97;;
11100;SDS011;5604;50.722;7.078;2023-07-08T01:24:06;8.80;;;7.47;;
11100;SDS011;5604;50.722;7.078;2023-07-08T01:26:37;12.53;;;8.03;;
11100;SDS011;5604;50.722;7.078;2023-07-08T01:29:07;9.67;;;7.70;;
11100;SDS011;5604;50.722;7.078;2023-07-08T01:31:35;12.00;;;8.23;;
11100;SDS011;5604;50.722;7.078;2023-07-08T01:34:04;13.07;;;7.13;;
11100;SDS011;5604;50.722;7.078;2023-07-08T01:36:34;9.33;;;7.47;;
11100;SDS011;5604;50.722;7.078;2023-07-08T01:39:09;10.93;;;7.37;;
11100;SDS011;5604;50.722;7.078;2023-07-08T01:41:39;10.37;;;7.57;;
11100;SDS011;5604;50.722;7.078;2023-07-08T01:44:18;10.10;;;7.43;;
11100;SDS011;5604;50.722;7.078;2023-07-08T01:46:50;11.57;;;8.00;;
11100;SDS011;5604;50.722;7.078;2023-07-08T01:49:20;10.47;;;8.10;;
11100;SDS011;5604;50.722;7.078;2023-07-08T01:51:49;9.97;;;7.63;;
11100;SDS011;5604;50.722;7.078;2023-07-08T01:54:20;9.90;;;7.20;;
11100;SDS011;5604;50.722;7.078;2023-07-08T01:56:53;9.30;;;7.33;;
11100;SDS011;5604;50.722;7.078;2023-07-08T01:59:23;10.20;;;7.80;;
11100;SDS011;5604;50.722;7.078;2023-07-08T02:01:52;8.97;;;7.13;;
11100;SDS011;5604;50.722;7.078;2023-07-08T02:04:22;12.80;;;8.37;;
11100;SDS011;5604;50.722;7.078;2023-07-08T02:06:51;10.27;;;7.57;;
11100;SDS011;5604;50.722;7.078;2023-07-08T02:09:22;9.70;;;7.93;;
11100;SDS011;5604;50.722;7.078;2023-07-08T02:11:51;9.90;;;7.90;;
11100;SDS011;5604;50.722;7.078;2023-07-08T02:14:19;10.87;;;8.03;;
11100;SDS011;5604;50.722;7.078;2023-07-08T02:16:48;9.77;;;7.23;;
11100;SDS011;5604;50.722;7.078;2023-07-08T02:19:16;9.70;;;8.00;;
11100;SDS011;5604;50.722;7.078;2023-07-08T02:21:46;8.30;;;7.17;;
11100;SDS011;5604;50.722;7.078;2023-07-08T02:24:15;9.30;;;7.77;;
11100;SDS011;5604;50.722;7.078;2023-07-08T02:26:45;9.73;;;7.83;;
11100;SDS011;5604;50.722;7.078;2023-07-08T02:29:14;10.30;;;7.43;;
11100;SDS011;5604;50.722;7.078;2023-07-08T02:31:42;8.87;;;7.50;;
11100;SDS011;5604;50.722;7.078;2023-07-08T02:34:11;9.27;;;7.47;;
11100;SDS011;5604;50.722;7.078;2023-07-08T02:36:40;8.90;;;7.47;;
11100;SDS011;5604;50.722;7.078;2023-07-08T02:39:08;8.43;;;7.30;;
11100;SDS011;5604;50.722;7.078;2023-07-08T02:41:37;9.53;;;8.20;;
11100;SDS011;5604;50.722;7.078;2023-07-08T02:44:06;10.80;;;7.97;;
11100;SDS011;5604;50.722;7.078;2023-07-08T02:46:35;9.17;;;7.47;;
11100;SDS011;5604;50.722;7.078;2023-07-08T02:49:03;11.57;;;8.23;;
11100;SDS011;5604;50.722;7.078;2023-07-08T02:51:32;10.57;;;8.47;;
11100;SDS011;5604;50.722;7.078;2023-07-08T02:54:00;11.93;;;7.80;;
11100;SDS011;5604;50.722;7.078;2023-07-08T02:56:29;9.17;;;7.80;;
11100;SDS011;5604;50.722;7.078;2023-07-08T02:58:57;9.77;;;7.53;;
11100;SDS011;5604;50.722;7.078;2023-07-08T03:01:26;9.47;;;8.00;;
11100;SDS011;5604;50.722;7.078;2023-07-08T03:03:55;10.50;;;8.33;;
11100;SDS011;5604;50.722;7.078;2023-07-08T03:06:25;12.43;;;8.77;;
11100;SDS011;5604;50.722;7.078;2023-07-08T03:08:53;10.83;;;8.30;;
11100;SDS011;5604;50.722;7.078;2023-07-08T03:11:22;10.37;;;8.00;;
11100;SDS011;5604;50.722;7.078;2023-07-08T03:13:50;11.23;;;8.03;;
11100;SDS011;5604;50.722;7.078;2023-07-08T03:16:18;11.03;;;7.50;;
11100;SDS011;5604;50.722;7.078;2023-07-08T03:18:48;10.53;;;8.00;;
11100;SDS011;5604;50.722;7.078;2023-07-08T03:21:17;9.57;;;7.90;;
11100;SDS011;5604;50.722;7.078;2023-07-08T03:23:47;11.27;;;8.13;;
11100;SDS011;5604;50.722;7.078;2023-07-08T03:26:20;9.77;;;7.60;;
11100;SDS011;5604;50.722;7.078;2023-07-08T03:28:50;10.13;;;7.77;;
11100;SDS011;5604;50.722;7.078;2023-07-08T03:31:20;9.83;;;7.83;;
11100;SDS011;5604;50.722;7.078;2023-07-08T03:33:51;9.50;;;7.53;;
11100;SDS011;5604;50.722;7.078;2023-07-08T03:36:19;12.30;;;8.67;;
11100;SDS011;5604;50.722;7.078;2023-07-08T03:38:50;12.90;;;8.53;;
11100;SDS011;5604;50.722;7.078;2023-07-08T03:41:19;11.87;;;8.50;;
11100;SDS011;5604;50.722;7.078;2023-07-08T03:43:48;10.67;;;8.27;;
11100;SDS011;5604;50.722;7.078;2023-07-08T03:46:18;11.60;;;9.00;;
11100;SDS011;5604;50.722;7.078;2023-07-08T03:48:47;10.53;;;8.53;;
11100;SDS011;5604;50.722;7.078;2023-07-08T03:51:20;9.47;;;8.40;;
11100;SDS011;5604;50.722;7.078;2023-07-08T03:53:49;12.07;;;8.23;;
11100;SDS011;5604;50.722;7.078;2023-07-08T03:56:18;9.87;;;8.50;;
11100;SDS011;5604;50.722;7.078;2023-07-08T03:58:46;12.10;;;8.80;;
11100;SDS011;5604;50.722;7.078;2023-07-08T04:01:15;10.73;;;8.93;;
11100;SDS011;5604;50.722;7.078;2023-07-08T04:03:44;10.03;;;7.90;;
11100;SDS011;5604;50.722;7.078;2023-07-08T04:06:12;11.13;;;7.50;;
11100;SDS011;5604;50.722;7.078;2023-07-08T04:08:42;12.07;;;7.90;;
11100;SDS011;5604;50.722;7.078;2023-07-08T04:11:11;10.57;;;7.90;;
11100;SDS011;5604;50.722;7.078;2023-07-08T04:13:40;11.13;;;8.43;;
11100;SDS011;5604;50.722;7.078;2023-07-08T04:16:09;9.00;;;7.60;;
11100;SDS011;5604;50.722;7.078;2023-07-08T04:18:46;11.53;;;8.17;;
11100;SDS011;5604;50.722;7.078;2023-07-08T04:21:17;11.17;;;8.47;;
11100;SDS011;5604;50.722;7.078;2023-07-08T04:23:50;10.20;;;7.97;;
11100;SDS011;5604;50.722;7.078;2023-07-08T04:26:19;11.37;;;8.53;;
11100;SDS011;5604;50.722;7.078;2023-07-08T04:28:47;11.80;;;8.63;;
11100;SDS011;5604;50.722;7.078;2023-07-08T04:31:15;11.90;;;8.60;;
11100;SDS011;5604;50.722;7.078;2023-07-08T04:33:43;12.13;;;8.60;;
11100;SDS011;5604;50.722;7.078;2023-07-08T04:36:12;11.57;;;8.83;;
11100;SDS011;5604;50.722;7.078;2023-07-08T04:38:41;12.53;;;9.10;;
11100;SDS011;5604;50.722;7.078;2023-07-08T04:41:15;10.27;;;7.57;;
11100;SDS011;5604;50.722;7.078;2023-07-08T04:43:43;10.57;;;7.90;;
11100;SDS011;5604;50.722;7.078;2023-07-08T04:46:14;12.30;;;8.23;;
11100;SDS011;5604;50.722;7.078;2023-07-08T04:48:46;10.13;;;8.03;;
11100;SDS011;5604;50.722;7.078;2023-07-08T04:51:14;13.20;;;8.97;;
11100;SDS011;5604;50.722;7.078;2023-07-08T04:53:43;12.27;;;9.13;;
11100;SDS011;5604;50.722;7.078;2023-07-08T04:56:11;9.53;;;7.97;;
11100;SDS011;5604;50.722;7.078;2023-07-08T04:58:40;9.73;;;7.80;;
11100;SDS011;5604;50.722;7.078;2023-07-08T05:01:08;9.33;;;7.43;;
11100;SDS011;5604;50.722;7.078;2023-07-08T05:03:37;11.60;;;8.80;;
11100;SDS011;5604;50.722;7.078;2023-07-08T05:06:05;9.27;;;8.07;;
11100;SDS011;5604;50.722;7.078;2023-07-08T05:08:33;9.93;;;8.37;;
11100;SDS011;5604;50.722;7.078;2023-07-08T05:11:01;10.07;;;8.43;;
11100;SDS011;5604;50.722;7.078;2023-07-08T05:13:30;10.30;;;7.70;;
11100;SDS011;5604;50.722;7.078;2023-07-08T05:15:59;11.70;;;7.80;;
11100;SDS011;5604;50.722;7.078;2023-07-08T05:18:28;13.20;;;8.33;;
11100;SDS011;5604;50.722;7.078;2023-07-08T05:20:56;9.57;;;8.03;;
11100;SDS011;5604;50.722;7.078;2023-07-08T05:23:24;11.20;;;7.80;;
11100;SDS011;5604;50.722;7.078;2023-07-08T05:25:53;11.67;;;8.07;;
11100;SDS011;5604;50.722;7.078;2023-07-08T05:28:21;11.90;;;8.07;;
11100;SDS011;5604;50.722;7.078;2023-07-08T05:30:52;10.47;;;8.03;;
11100;SDS011;5604;50.722;7.078;2023-07-08T05:33:22;9.67;;;8.67;;
11100;SDS011;5604;50.722;7.078;2023-07-08T05:35:50;9.50;;;7.63;;
11100;SDS011;5604;50.722;7.078;2023-07-08T05:38:19;10.10;;;8.63;;
11100;SDS011;5604;50.722;7.078;2023-07-08T05:40:48;12.23;;;8.60;;
11100;SDS011;5604;50.722;7.078;2023-07-08T05:43:17;8.93;;;7.60;;
11100;SDS011;5604;50.722;7.078;2023-07-08T05:45:45;12.03;;;8.50;;
11100;SDS011;5604;50.722;7.078;2023-07-08T05:48:35;9.80;;;7.40;;
11100;SDS011;5604;50.722;7.078;2023-07-08T05:51:03;10.33;;;8.47;;
11100;SDS011;5604;50.722;7.078;2023-07-08T05:53:31;10.47;;;8.40;;
11100;SDS011;5604;50.722;7.078;2023-07-08T05:55:59;11.80;;;8.30;;
11100;SDS011;5604;50.722;7.078;2023-07-08T05:58:28;9.10;;;7.77;;
11100;SDS011;5604;50.722;7.078;2023-07-08T06:00:56;9.20;;;7.57;;
11100;SDS011;5604;50.722;7.078;2023-07-08T06:03:25;11.23;;;7.83;;
11100;SDS011;5604;50.722;7.078;2023-07-08T06:05:55;10.50;;;8.03;;
11100;SDS011;5604;50.722;7.078;2023-07-08T06:08:23;8.60;;;7.30;;
11100;SDS011;5604;50.722;7.078;2023-07-08T06:10:51;8.33;;;7.13;;
11100;SDS011;5604;50.722;7.078;2023-07-08T06:13:20;10.10;;;7.30;;
11100;SDS011;5604;50.722;7.078;2023-07-08T06:15:48;8.27;;;7.07;;
11100;SDS011;5604;50.722;7.078;2023-07-08T06:18:16;9.33;;;7.07;;
11100;SDS011;5604;50.722;7.078;2023-07-08T06:20:50;9.30;;;6.83;;
11100;SDS011;5604;50.722;7.078;2023-07-08T06:23:20;9.67;;;6.77;;
11100;SDS011;5604;50.722;7.078;2023-07-08T06:25:48;8.07;;;6.63;;
11100;SDS011;5604;50.722;7.078;2023-07-08T06:28:18;8.17;;;6.97;;
11100;SDS011;5604;50.722;7.078;2023-07-08T06:30:46;8.97;;;6.83;;
11100;SDS011;5604;50.722;7.078;2023-07-08T06:33:15;8.33;;;6.93;;
11100;SDS011;5604;50.722;7.078;2023-07-08T06:35:43;8.90;;;7.00;;
11100;SDS011;5604;50.722;7.078;2023-07-08T06:38:12;7.83;;;6.57;;
11100;SDS011;5604;50.722;7.078;2023-07-08T06:40:41;10.33;;;7.50;;
11100;SDS011;5604;50.722;7.078;2023-07-08T06:43:10;9.93;;;7.23;;
11100;SDS011;5604;50.722;7.078;2023-07-08T06:45:55;9.27;;;6.77;;
11100;SDS011;5604;50.722;7.078;2023-07-08T06:48:23;7.23;;;6.00;;
11100;SDS011;5604;50.722;7.078;2023-07-08T06:50:52;11.00;;;6.50;;
11100;SDS011;5604;50.722;7.078;2023-07-08T06:53:20;8.10;;;6.13;;
11100;SDS011;5604;50.722;7.078;2023-07-08T06:55:49;9.27;;;6.77;;
11100;SDS011;5604;50.722;7.078;2023-07-08T06:58:18;6.97;;;6.10;;
11100;SDS011;5604;50.722;7.078;2023-07-08T07:00:46;7.47;;;5.43;;
11100;SDS011;5604;50.722;7.078;2023-07-08T07:03:14;8.27;;;6.37;;
11100;SDS011;5604;50.722;7.078;2023-07-08T07:05:43;7.40;;;6.00;;
11100;SDS011;5604;50.722;7.078;2023-07-08T07:08:11;7.53;;;6.50;;
11100;SDS011;5604;50.722;7.078;2023-07-08T07:10:39;7.17;;;6.37;;
11100;SDS011;5604;50.722;7.078;2023-07-08T07:13:08;6.93;;;6.27;;
11100;SDS011;5604;50.722;7.078;2023-07-08T07:15:37;9.17;;;6.00;;
11100;SDS011;5604;50.722;7.078;2023-07-08T07:18:05;6.83;;;6.13;;
11100;SDS011;5604;50.722;7.078;2023-07-08T07:20:35;7.57;;;5.90;;
11100;SDS011;5604;50.722;7.078;2023-07-08T07:23:04;6.43;;;5.83;;
11100;SDS011;5604;50.722;7.078;2023-07-08T07:25:32;8.53;;;6.10;;
11100;SDS011;5604;50.722;7.078;2023-07-08T07:28:00;8.90;;;6.53;;
11100;SDS011;5604;50.722;7.078;2023-07-08T07:30:30;6.80;;;5.30;;
11100;SDS011;5604;50.722;7.078;2023-07-08T07:32:59;6.60;;;5.90;;
11100;SDS011;5604;50.722;7.078;2023-07-08T07:35:27;6.63;;;5.93;;
11100;SDS011;5604;50.722;7.078;2023-07-08T07:37:55;6.67;;;5.73;;
11100;SDS011;5604;50.722;7.078;2023-07-08T07:40:23;6.23;;;5.60;;
11100;SDS011;5604;50.722;7.078;2023-07-08T07:42:52;7.00;;;5.33;;
11100;SDS011;5604;50.722;7.078;2023-07-08T07:45:20;5.83;;;5.33;;
11100;SDS011;5604;50.722;7.078;2023-07-08T07:47:50;6.07;;;5.47;;
11100;SDS011;5604;50.722;7.078;2023-07-08T07:50:18;7.40;;;5.60;;
11100;SDS011;5604;50.722;7.078;2023-07-08T07:52:47;7.37;;;5.30;;
11100;SDS011;5604;50.722;7.078;2023-07-08T07:55:15;5.77;;;5.13;;
11100;SDS011;5604;50.722;7.078;2023-07-08T07:57:43;5.43;;;4.93;;
11100;SDS011;5604;50.722;7.078;2023-07-08T08:00:12;5.70;;;5.10;;
11100;SDS011;5604;50.722;7.078;2023-07-08T08:02:43;7.47;;;5.40;;
11100;SDS011;5604;50.722;7.078;2023-07-08T08:05:13;6.00;;;5.40;;
11100;SDS011;5604;50.722;7.078;2023-07-08T08:07:41;6.80;;;5.20;;
11100;SDS011;5604;50.722;7.078;2023-07-08T08:10:09;5.00;;;4.23;;
11100;SDS011;5604;50.722;7.078;2023-07-08T08:12:37;6.57;;;4.70;;
11100;SDS011;5604;50.722;7.078;2023-07-08T08:15:19;5.37;;;4.70;;
11100;SDS011;5604;50.722;7.078;2023-07-08T08:17:47;6.27;;;4.63;;
11100;SDS011;5604;50.722;7.078;2023-07-08T08:20:20;5.63;;;4.90;;
11100;SDS011;5604;50.722;7.078;2023-07-08T08:22:51;7.23;;;4.70;;
11100;SDS011;5604;50.722;7.078;2023-07-08T08:25:20;6.10;;;4.87;;
11100;SDS011;5604;50.722;7.078;2023-07-08T08:27:48;5.93;;;5.00;;
11100;SDS011;5604;50.722;7.078;2023-07-08T08:30:18;6.83;;;5.10;;
11100;SDS011;5604;50.722;7.078;2023-07-08T08:32:46;5.57;;;4.93;;
11100;SDS011;5604;50.722;7.078;2023-07-08T08:35:14;5.87;;;4.70;;
11100;SDS011;5604;50.722;7.078;2023-07-08T08:37:44;8.90;;;5.00;;
11100;SDS011;5604;50.722;7.078;2023-07-08T08:40:13;7.50;;;4.93;;
11100;SDS011;5604;50.722;7.078;2023-07-08T08:42:50;6.60;;;4.63;;
11100;SDS011;5604;50.722;7.078;2023-07-08T08:45:20;7.47;;;4.87;;
11100;SDS011;5604;50.722;7.078;2023-07-08T08:47:52;7.93;;;4.60;;
11100;SDS011;5604;50.722;7.078;2023-07-08T08:50:29;6.20;;;4.30;;
11100;SDS011;5604;50.722;7.078;2023-07-08T08:53:00;6.60;;;5.03;;
11100;SDS011;5604;50.722;7.078;2023-07-08T08:55:30;5.23;;;4.13;;
11100;SDS011;5604;50.722;7.078;2023-07-08T08:58:01;5.00;;;4.50;;
11100;SDS011;5604;50.722;7.078;2023-07-08T09:00:37;5.30;;;4.60;;
11100;SDS011;5604;50.722;7.078;2023-07-08T09:03:12;5.50;;;4.70;;
11100;SDS011;5604;50.722;7.078;2023-07-08T09:05:42;5.40;;;4.60;;
11100;SDS011;5604;50.722;7.078;2023-07-08T09:08:14;6.73;;;4.57;;
11100;SDS011;5604;50.722;7.078;2023-07-08T09:10:45;4.87;;;4.37;;
11100;SDS011;5604;50.722;7.078;2023-07-08T09:13:16;6.00;;;4.23;;
11100;SDS011;5604;50.722;7.078;2023-07-08T09:15:51;5.83;;;4.90;;
11100;SDS011;5604;50.722;7.078;2023-07-08T09:18:27;6.40;;;4.33;;
11100;SDS011;5604;50.722;7.078;2023-07-08T09:20:57;6.07;;;4.80;;
11100;SDS011;5604;50.722;7.078;2023-07-08T09:23:30;5.40;;;4.90;;
11100;SDS011;5604;50.722;7.078;2023-07-08T09:26:02;6.93;;;4.60;;
11100;SDS011;5604;50.722;7.078;2023-07-08T09:28:36;5.97;;;4.93;;
11100;SDS011;5604;50.722;7.078;2023-07-08T09:31:05;5.97;;;4.17;;
11100;SDS011;5604;50.722;7.078;2023-07-08T09:33:37;4.53;;;4.13;;
11100;SDS011;5604;50.722;7.078;2023-07-08T09:36:15;8.40;;;4.63;;
11100;SDS011;5604;50.722;7.078;2023-07-08T09:38:48;7.87;;;4.50;;
11100;SDS011;5604;50.722;7.078;2023-07-08T09:41:28;5.10;;;4.20;;
11100;SDS011;5604;50.722;7.078;2023-07-08T09:44:13;9.00;;;4.70;;
11100;SDS011;5604;50.722;7.078;2023-07-08T09:46:44;6.63;;;4.87;;
11100;SDS011;5604;50.722;7.078;2023-07-08T09:49:15;4.97;;;4.47;;
11100;SDS011;5604;50.722;7.078;2023-07-08T09:51:44;5.07;;;4.57;;
11100;SDS011;5604;50.722;7.078;2023-07-08T09:54:14;7.40;;;5.30;;
11100;SDS011;5604;50.722;7.078;2023-07-08T09:56:43;6.33;;;4.47;;
11100;SDS011;5604;50.722;7.078;2023-07-08T09:59:21;5.57;;;4.73;;
11100;SDS011;5604;50.722;7.078;2023-07-08T10:01:50;7.47;;;4.77;;
11100;SDS011;5604;50.722;7.078;2023-07-08T10:04:19;7.77;;;4.83;;
11100;SDS011;5604;50.722;7.078;2023-07-08T10:06:47;6.43;;;4.50;;
11100;SDS011;5604;50.722;7.078;2023-07-08T10:09:18;6.60;;;5.13;;
11100;SDS011;5604;50.722;7.078;2023-07-08T10:11:48;6.90;;;4.73;;
11100;SDS011;5604;50.722;7.078;2023-07-08T10:14:23;7.33;;;5.33;;
11100;SDS011;5604;50.722;7.078;2023-07-08T10:16:53;6.30;;;4.70;;
11100;SDS011;5604;50.722;7.078;2023-07-08T10:19:22;5.20;;;4.60;;
11100;SDS011;5604;50.722;7.078;2023-07-08T10:21:54;6.03;;;5.10;;
11100;SDS011;5604;50.722;7.078;2023-07-08T10:24:46;5.93;;;4.77;;
11100;SDS011;5604;50.722;7.078;2023-07-08T10:27:26;7.13;;;4.67;;
11100;SDS011;5604;50.722;7.078;2023-07-08T10:30:00;6.83;;;4.97;;
11100;SDS011;5604;50.722;7.078;2023-07-08T10:32:37;6.17;;;4.67;;
11100;SDS011;5604;50.722;7.078;2023-07-08T10:35:12;6.33;;;5.10;;
11100;SDS011;5604;50.722;7.078;2023-07-08T10:37:47;5.97;;;5.37;;
11100;SDS011;5604;50.722;7.078;2023-07-08T10:40:37;7.27;;;5.03;;
11100;SDS011;5604;50.722;7.078;2023-07-08T10:43:14;7.47;;;4.70;;
11100;SDS011;5604;50.722;7.078;2023-07-08T10:45:48;7.20;;;5.10;;
11100;SDS011;5604;50.722;7.078;2023-07-08T10:48:25;7.53;;;4.77;;
11100;SDS011;5604;50.722;7.078;2023-07-08T10:51:06;6.00;;;4.60;;
11100;SDS011;5604;50.722;7.078;2023-07-08T10:53:47;9.90;;;5.30;;
11100;SDS011;5604;50.722;7.078;2023-07-08T10:56:27;6.80;;;5.17;;
11100;SDS011;5604;50.722;7.078;2023-07-08T10:59:07;6.90;;;4.93;;
11100;SDS011;5604;50.722;7.078;2023-07-08T11:01:51;6.67;;;5.50;;
11100;SDS011;5604;50.722;7.078;2023-07-08T11:04:32;6.03;;;5.07;;
11100;SDS011;5604;50.722;7.078;2023-07-08T11:07:09;7.43;;;5.10;;
11100;SDS011;5604;50.722;7.078;2023-07-08T11:09:40;5.40;;;4.90;;
11100;SDS011;5604;50.722;7.078;2023-07-08T11:12:14;7.33;;;5.87;;
11100;SDS011;5604;50.722;7.078;2023-07-08T11:14:48;5.33;;;4.80;;
11100;SDS011;5604;50.722;7.078;2023-07-08T11:17:19;5.17;;;4.67;;
11100;SDS011;5604;50.722;7.078;2023-07-08T11:19:53;7.77;;;5.00;;
11100;SDS011;5604;50.722;7.078;2023-07-08T11:22:24;5.57;;;4.57;;
11100;SDS011;5604;50.722;7.078;2023-07-08T11:24:54;8.30;;;4.70;;
11100;SDS011;5604;50.722;7.078;2023-07-08T11:27:25;6.67;;;4.87;;
11100;SDS011;5604;50.722;7.078;2023-07-08T11:29:57;5.53;;;4.87;;
11100;SDS011;5604;50.722;7.078;2023-07-08T11:32:28;7.37;;;4.73;;
11100;SDS011;5604;50.722;7.078;2023-07-08T11:34:58;5.87;;;4.70;;
11100;SDS011;5604;50.722;7.078;2023-07-08T11:37:27;8.80;;;5.20;;
11100;SDS011;5604;50.722;7.078;2023-07-08T11:39:58;8.43;;;4.93;;
11100;SDS011;5604;50.722;7.078;2023-07-08T11:42:31;5.33;;;4.33;;
11100;SDS011;5604;50.722;7.078;2023-07-08T11:45:06;5.17;;;4.60;;
11100;SDS011;5604;50.722;7.078;2023-07-08T11:47:51;6.40;;;4.87;;
11100;SDS011;5604;50.722;7.078;2023-07-08T11:50:21;7.03;;;5.33;;
11100;SDS011;5604;50.722;7.078;2023-07-08T11:52:51;7.47;;;4.77;;
11100;SDS011;5604;50.722;7.078;2023-07-08T11:55:21;10.00;;;4.93;;
11100;SDS011;5604;50.722;7.078;2023-07-08T11:57:59;8.23;;;4.80;;
11100;SDS011;5604;50.722;7.078;2023-07-08T12:00:30;6.90;;;4.83;;
11100;SDS011;5604;50.722;7.078;2023-07-08T12:03:03;6.10;;;5.13;;
11100;SDS011;5604;50.722;7.078;2023-07-08T12:05:46;8.23;;;4.50;;
11100;SDS011;5604;50.722;7.078;2023-07-08T12:08:14;9.60;;;5.30;;
11100;SDS011;5604;50.722;7.078;2023-07-08T12:10:46;10.77;;;5.00;;
11100;SDS011;5604;50.722;7.078;2023-07-08T12:13:18;6.70;;;4.53;;
11100;SDS011;5604;50.722;7.078;2023-07-08T12:15:47;6.33;;;4.77;;
11100;SDS011;5604;50.722;7.078;2023-07-08T12:18:16;5.23;;;4.40;;
11100;SDS011;5604;50.722;7.078;2023-07-08T12:20:47;6.10;;;4.97;;
11100;SDS011;5604;50.722;7.078;2023-07-08T12:23:20;10.03;;;4.90;;
11100;SDS011;5604;50.722;7.078;2023-07-08T12:25:49;6.77;;;4.77;;
11100;SDS011;5604;50.722;7.078;2023-07-08T12:28:20;8.00;;;5.07;;
11100;SDS011;5604;50.722;7.078;2023-07-08T12:30:48;5.37;;;4.33;;
11100;SDS011;5604;50.722;7.078;2023-07-08T12:33:18;8.17;;;4.90;;
11100;SDS011;5604;50.722;7.078;2023-07-08T12:35:47;9.67;;;5.37;;
11100;SDS011;5604;50.722;7.078;2023-07-08T12:38:19;7.00;;;5.37;;
11100;SDS011;5604;50.722;7.078;2023-07-08T12:40:50;12.13;;;5.00;;
11100;SDS011;5604;50.722;7.078;2023-07-08T12:43:19;7.03;;;4.77;;
11100;SDS011;5604;50.722;7.078;2023-07-08T12:45:48;8.37;;;4.60;;
11100;SDS011;5604;50.722;7.078;2023-07-08T12:48:16;7.00;;;5.10;;
11100;SDS011;5604;50.722;7.078;2023-07-08T12:50:44;5.73;;;4.87;;
11100;SDS011;5604;50.722;7.078;2023-07-08T12:53:12;5.60;;;4.60;;
11100;SDS011;5604;50.722;7.078;2023-07-08T12:55:40;8.17;;;5.10;;
11100;SDS011;5604;50.722;7.078;2023-07-08T12:58:12;5.90;;;4.70;;
11100;SDS011;5604;50.722;7.078;2023-07-08T13:00:42;6.97;;;4.40;;
11100;SDS011;5604;50.722;7.078;2023-07-08T13:03:12;7.07;;;4.73;;
11100;SDS011;5604;50.722;7.078;2023-07-08T13:05:43;8.13;;;4.87;;
11100;SDS011;5604;50.722;7.078;2023-07-08T13:08:12;9.67;;;5.60;;
11100;SDS011;5604;50.722;7.078;2023-07-08T13:10:41;6.23;;;5.07;;
11100;SDS011;5604;50.722;7.078;2023-07-08T13:13:11;9.70;;;5.27;;
11100;SDS011;5604;50.722;7.078;2023-07-08T13:15:42;6.90;;;4.73;;
11100;SDS011;5604;50.722;7.078;2023-07-08T13:18:13;8.37;;;5.10;;
11100;SDS011;5604;50.722;7.078;2023-07-08T13:20:43;8.10;;;4.90;;
11100;SDS011;5604;50.722;7.078;2023-07-08T13:23:12;7.20;;;4.77;;
11100;SDS011;5604;50.722;7.078;2023-07-08T13:25:41;5.53;;;4.80;;
11100;SDS011;5604;50.722;7.078;2023-07-08T13:28:15;6.90;;;5.17;;
11100;SDS011;5604;50.722;7.078;2023-07-08T13:30:52;7.53;;;5.00;;
11100;SDS011;5604;50.722;7.078;2023-07-08T13:33:22;8.83;;;5.30;;
11100;SDS011;5604;50.722;7.078;2023-07-08T13:35:51;8.30;;;5.30;;
11100;SDS011;5604;50.722;7.078;2023-07-08T13:38:23;9.07;;;5.50;;
11100;SDS011;5604;50.722;7.078;2023-07-08T13:40:53;7.20;;;5.50;;
11100;SDS011;5604;50.722;7.078;2023-07-08T13:43:23;7.90;;;5.23;;
11100;SDS011;5604;50.722;7.078;2023-07-08T13:45:53;7.37;;;5.03;;
11100;SDS011;5604;50.722;7.078;2023-07-08T13:48:23;8.90;;;5.33;;
11100;SDS011;5604;50.722;7.078;2023-07-08T13:50:55;6.93;;;5.00;;
11100;SDS011;5604;50.722;7.078;2023-07-08T13:53:26;6.53;;;5.40;;
11100;SDS011;5604;50.722;7.078;2023-07-08T13:56:01;7.40;;;5.67;;
11100;SDS011;5604;50.722;7.078;2023-07-08T13:58:31;9.47;;;5.50;;
11100;SDS011;5604;50.722;7.078;2023-07-08T14:01:00;8.40;;;4.90;;
11100;SDS011;5604;50.722;7.078;2023-07-08T14:03:29;9.90;;;5.47;;
11100;SDS011;5604;50.722;7.078;2023-07-08T14:05:57;13.17;;;5.87;;
11100;SDS011;5604;50.722;7.078;2023-07-08T14:08:25;8.90;;;4.73;;
11100;SDS011;5604;50.722;7.078;2023-07-08T14:10:54;8.23;;;5.40;;
11100;SDS011;5604;50.722;7.078;2023-07-08T14:13:22;9.20;;;6.30;;
11100;SDS011;5604;50.722;7.078;2023-07-08T14:15:50;5.87;;;5.13;;
11100;SDS011;5604;50.722;7.078;2023-07-08T14:18:20;6.50;;;5.13;;
11100;SDS011;5604;50.722;7.078;2023-07-08T14:20:48;8.27;;;5.03;;
11100;SDS011;5604;50.722;7.078;2023-07-08T14:23:16;8.20;;;5.50;;
11100;SDS011;5604;50.722;7.078;2023-07-08T14:25:45;5.73;;;4.70;;
11100;SDS011;5604;50.722;7.078;2023-07-08T14:28:13;7.83;;;5.30;;
11100;SDS011;5604;50.722;7.078;2023-07-08T14:30:42;7.10;;;5.17;;
11100;SDS011;5604;50.722;7.078;2023-07-08T14:33:12;8.87;;;5.83;;
11100;SDS011;5604;50.722;7.078;2023-07-08T14:35:42;7.50;;;5.33;;
11100;SDS011;5604;50.722;7.078;2023-07-08T14:38:10;7.67;;;5.07;;
11100;SDS011;5604;50.722;7.078;2023-07-08T14:40:39;9.73;;;5.03;;
11100;SDS011;5604;50.722;7.078;2023-07-08T14:43:11;7.50;;;5.00;;
11100;SDS011;5604;50.722;7.078;2023-07-08T14:45:44;9.23;;;5.10;;
11100;SDS011;5604;50.722;7.078;2023-07-08T14:48:14;6.07;;;5.00;;
11100;SDS011;5604;50.722;7.078;2023-07-08T14:50:44;5.77;;;4.90;;
11100;SDS011;5604;50.722;7.078;2023-07-08T14:53:12;8.97;;;4.97;;
11100;SDS011;5604;50.722;7.078;2023-07-08T14:55:41;6.23;;;4.67;;
11100;SDS011;5604;50.722;7.078;2023-07-08T14:58:11;6.63;;;5.43;;
11100;SDS011;5604;50.722;7.078;2023-07-08T15:00:45;8.63;;;5.23;;
11100;SDS011;5604;50.722;7.078;2023-07-08T15:03:13;7.70;;;5.30;;
11100;SDS011;5604;50.722;7.078;2023-07-08T15:05:41;7.23;;;4.70;;
11100;SDS011;5604;50.722;7.078;2023-07-08T15:08:11;6.97;;;5.23;;
11100;SDS011;5604;50.722;7.078;2023-07-08T15:10:40;8.67;;;4.93;;
11100;SDS011;5604;50.722;7.078;2023-07-08T15:13:10;8.67;;;4.97;;
11100;SDS011;5604;50.722;7.078;2023-07-08T15:15:38;7.83;;;4.67;;
11100;SDS011;5604;50.722;7.078;2023-07-08T15:18:10;7.33;;;4.97;;